Terminal Aerodrome Forecast
Issued by NWS Charleston, SC

Home | Current Version | Previous Version | Text Only | Print | Product List | Glossary On
Versions: 1 2 3 4 5 6 7 8 9 10 11 12 13 14 15 16 17 18 19
000
FTUS42 KCHS 232330
TAFSAV
TAF
KSAV 232330Z 2400/2424 36006KT P6SM BKN012
      TEMPO 2400/2401 BKN006
     FM240230 36005KT P6SM BKN050
     FM241300 36007KT P6SM SCT040
     FM241600 01007KT P6SM SKC=

USA.gov is the U.S. government's official web portal to all federal, state and local government web resources and services.